Terminal Aerodrome Forecast
Issued by NWS

Current Version | Previous Version | Text Only | Print | Product List | Glossary Off
Versions: 1 2 3 4 5 6 7 8 9 10 11 12 13 14 15 16 17 18 19 20 21 22 23 24 25 26 27 28 29 30 31 32 33 34 35 36 37 38 39 40 41 42

000
FTUS41 KRNK 231145
TAFLWB
TAF
KLWB 231145Z 2312/2412 05003KT P6SM OVC100
     FM231600 07004KT 5SM -SN BR BKN025 OVC070
     FM231900 07005KT 2SM -SNPL BR OVC012
      TEMPO 2320/2324 3SM -FZRAPL BR
     FM240400 36004KT 2SM -SN OVC010=

USA.gov is the U.S. government's official web portal to all federal, state and local government web resources and services.